Etusivu
METAR-TAF:

METAR-TAF

Lentoasemat :

Estherville Municipal Airport

Estherville, Iowa, Yhdysvallat

Leveyspiiri: 43-24-04N, Pituuspiiri: 094-44-50W, korkeus merenpinnasta: 401 m

Tämänhetkinen sää

Tämä raportti tehtiin 25 minuuttia sitten, kello 08.52 UTC
Tuuli 6 kn etelästä/kaakosta
Lämpötila -5°C
Kosteus 100%
Ilmanpaine 1011 hPa
Näkyvyys: 11.3 km
selkeää

METAR: KEST 170852Z AUTO 16006KT 7SM CLR M05/M05 A2985 RMK AO2 SLP125 T10501050 56017

Aika: 03:17 (09:17 UTC)


TAF: puuttuu

Säähavainnot ja -ennusteet yli 4000 lentoasemalta (METAR- ja TAF-raportit).

Käytössä olevat sääasemat on merkitty karttaan keltaisilla ja punaisilla pisteillä.

Aseta hiiri pisteen päälle nähdäksesi sääaseman nimen.

Klikkaa sitten nähdäksesi säähavainnot ja -ennusteet.

Kartan vaihtaminen: klikkaa mustalla rastilla varustettuja vihreitä pisteitä, niin voit zoomata sisään; viivalla varustettua vihreää pistettä, niin voit zoomata ulos tai vihreitä nuolia, niin pääset viereisille kartoille.


METAR-TAF: